sensor_id;sensor_type;location;lat;lon;timestamp;pressure;altitude;pressure_sealevel;temperature;humidity
65394;BME280;52002;49.760;6.512;2023-11-22T00:00:08;100720.16;;;7.68;77.98
65394;BME280;52002;49.760;6.512;2023-11-22T00:02:38;100727.04;;;7.58;77.88
65394;BME280;52002;49.760;6.512;2023-11-22T00:05:04;100730.30;;;7.49;77.84
65394;BME280;52002;49.760;6.512;2023-11-22T00:07:31;100737.89;;;7.40;77.94
65394;BME280;52002;49.760;6.512;2023-11-22T00:09:57;100743.64;;;7.34;77.89
65394;BME280;52002;49.760;6.512;2023-11-22T00:12:23;100748.95;;;7.31;78.07
65394;BME280;52002;49.760;6.512;2023-11-22T00:14:50;100752.70;;;7.31;78.16
65394;BME280;52002;49.760;6.512;2023-11-22T00:17:15;100753.70;;;7.29;78.00
65394;BME280;52002;49.760;6.512;2023-11-22T00:19:44;100752.77;;;7.27;77.99
65394;BME280;52002;49.760;6.512;2023-11-22T00:22:12;100755.52;;;7.25;78.11
65394;BME280;52002;49.760;6.512;2023-11-22T00:24:42;100758.70;;;7.23;77.86
65394;BME280;52002;49.760;6.512;2023-11-22T00:27:08;100767.69;;;7.18;77.71
65394;BME280;52002;49.760;6.512;2023-11-22T00:29:35;100777.52;;;7.13;77.59
65394;BME280;52002;49.760;6.512;2023-11-22T00:32:01;100774.46;;;7.08;77.58
65394;BME280;52002;49.760;6.512;2023-11-22T00:34:26;100779.59;;;7.02;77.34
65394;BME280;52002;49.760;6.512;2023-11-22T00:36:52;100778.92;;;6.96;77.11
65394;BME280;52002;49.760;6.512;2023-11-22T00:39:17;100781.37;;;6.91;77.42
65394;BME280;52002;49.760;6.512;2023-11-22T00:41:43;100786.02;;;6.87;77.39
65394;BME280;52002;49.760;6.512;2023-11-22T00:44:11;100784.55;;;6.82;77.41
65394;BME280;52002;49.760;6.512;2023-11-22T00:46:37;100788.44;;;6.79;77.40
65394;BME280;52002;49.760;6.512;2023-11-22T00:49:03;100790.73;;;6.79;77.56
65394;BME280;52002;49.760;6.512;2023-11-22T00:51:33;100791.01;;;6.80;77.73
65394;BME280;52002;49.760;6.512;2023-11-22T00:53:59;100785.42;;;6.85;78.16
65394;BME280;52002;49.760;6.512;2023-11-22T00:56:25;100783.59;;;6.86;78.37
65394;BME280;52002;49.760;6.512;2023-11-22T00:58:50;100788.21;;;6.92;78.61
65394;BME280;52002;49.760;6.512;2023-11-22T01:01:16;100785.89;;;6.92;78.30
65394;BME280;52002;49.760;6.512;2023-11-22T01:03:43;100782.19;;;6.92;78.06
65394;BME280;52002;49.760;6.512;2023-11-22T01:06:08;100785.04;;;6.88;77.67
65394;BME280;52002;49.760;6.512;2023-11-22T01:08:35;100786.75;;;6.83;77.55
65394;BME280;52002;49.760;6.512;2023-11-22T01:11:01;100792.35;;;6.76;77.46
65394;BME280;52002;49.760;6.512;2023-11-22T01:13:28;100796.61;;;6.70;77.43
65394;BME280;52002;49.760;6.512;2023-11-22T01:15:53;100797.36;;;6.63;77.15
65394;BME280;52002;49.760;6.512;2023-11-22T01:18:20;100802.15;;;6.57;77.51
65394;BME280;52002;49.760;6.512;2023-11-22T01:20:45;100807.02;;;6.51;77.43
65394;BME280;52002;49.760;6.512;2023-11-22T01:23:10;100813.61;;;6.45;77.39
65394;BME280;52002;49.760;6.512;2023-11-22T01:25:35;100811.06;;;6.40;77.50
65394;BME280;52002;49.760;6.512;2023-11-22T01:28:01;100814.13;;;6.36;77.71
65394;BME280;52002;49.760;6.512;2023-11-22T01:30:26;100811.41;;;6.34;77.49
65394;BME280;52002;49.760;6.512;2023-11-22T01:32:54;100812.41;;;6.32;77.74
65394;BME280;52002;49.760;6.512;2023-11-22T01:35:20;100814.60;;;6.28;77.62
65394;BME280;52002;49.760;6.512;2023-11-22T01:37:46;100819.55;;;6.25;77.73
65394;BME280;52002;49.760;6.512;2023-11-22T01:40:12;100821.30;;;6.25;77.97
65394;BME280;52002;49.760;6.512;2023-11-22T01:42:38;100825.82;;;6.23;77.96
65394;BME280;52002;49.760;6.512;2023-11-22T01:45:06;100829.16;;;6.24;77.93
65394;BME280;52002;49.760;6.512;2023-11-22T01:47:32;100825.59;;;6.24;78.00
65394;BME280;52002;49.760;6.512;2023-11-22T01:49:58;100816.70;;;6.22;78.04
65394;BME280;52002;49.760;6.512;2023-11-22T01:52:23;100822.63;;;6.23;78.12
65394;BME280;52002;49.760;6.512;2023-11-22T01:54:49;100823.85;;;6.27;78.60
65394;BME280;52002;49.760;6.512;2023-11-22T01:57:15;100824.60;;;6.30;78.28
65394;BME280;52002;49.760;6.512;2023-11-22T01:59:41;100830.79;;;6.32;79.07
65394;BME280;52002;49.760;6.512;2023-11-22T02:02:08;100829.34;;;6.36;79.07
65394;BME280;52002;49.760;6.512;2023-11-22T02:04:34;100833.63;;;6.35;78.53
65394;BME280;52002;49.760;6.512;2023-11-22T02:06:59;100834.20;;;6.32;78.37
65394;BME280;52002;49.760;6.512;2023-11-22T02:09:25;100836.08;;;6.30;78.45
65394;BME280;52002;49.760;6.512;2023-11-22T02:11:50;100839.16;;;6.29;78.43
65394;BME280;52002;49.760;6.512;2023-11-22T02:14:15;100836.71;;;6.25;78.40
65394;BME280;52002;49.760;6.512;2023-11-22T02:16:41;100838.39;;;6.20;78.25
65394;BME280;52002;49.760;6.512;2023-11-22T02:19:08;100833.34;;;6.15;78.65
65394;BME280;52002;49.760;6.512;2023-11-22T02:21:37;100836.49;;;6.10;78.47
65394;BME280;52002;49.760;6.512;2023-11-22T02:24:03;100840.09;;;6.05;78.48
65394;BME280;52002;49.760;6.512;2023-11-22T02:26:28;100845.34;;;6.03;78.70
65394;BME280;52002;49.760;6.512;2023-11-22T02:28:54;100850.31;;;6.03;79.05
65394;BME280;52002;49.760;6.512;2023-11-22T02:31:20;100851.07;;;6.02;79.04
65394;BME280;52002;49.760;6.512;2023-11-22T02:33:45;100854.26;;;5.98;79.21
65394;BME280;52002;49.760;6.512;2023-11-22T02:36:10;100859.08;;;5.94;79.14
65394;BME280;52002;49.760;6.512;2023-11-22T02:38:39;100868.71;;;5.89;78.96
65394;BME280;52002;49.760;6.512;2023-11-22T02:41:05;100875.58;;;5.83;79.23
65394;BME280;52002;49.760;6.512;2023-11-22T02:43:31;100884.11;;;5.76;79.34
65394;BME280;52002;49.760;6.512;2023-11-22T02:45:56;100890.42;;;5.73;79.57
65394;BME280;52002;49.760;6.512;2023-11-22T02:48:22;100889.82;;;5.72;79.66
65394;BME280;52002;49.760;6.512;2023-11-22T02:50:49;100897.30;;;5.70;79.70
65394;BME280;52002;49.760;6.512;2023-11-22T02:53:14;100903.34;;;5.66;79.79
65394;BME280;52002;49.760;6.512;2023-11-22T02:55:40;100904.02;;;5.60;79.82
65394;BME280;52002;49.760;6.512;2023-11-22T02:58:06;100908.96;;;5.57;79.83
65394;BME280;52002;49.760;6.512;2023-11-22T03:00:31;100913.32;;;5.51;80.11
65394;BME280;52002;49.760;6.512;2023-11-22T03:02:59;100926.23;;;5.41;79.86
65394;BME280;52002;49.760;6.512;2023-11-22T03:05:25;100925.80;;;5.32;79.74
65394;BME280;52002;49.760;6.512;2023-11-22T03:07:50;100921.71;;;5.26;80.18
65394;BME280;52002;49.760;6.512;2023-11-22T03:10:16;100920.34;;;5.22;80.15
65394;BME280;52002;49.760;6.512;2023-11-22T03:12:43;100922.43;;;5.15;80.17
65394;BME280;52002;49.760;6.512;2023-11-22T03:15:09;100923.08;;;5.10;80.11
65394;BME280;52002;49.760;6.512;2023-11-22T03:17:34;100918.52;;;5.05;80.12
65394;BME280;52002;49.760;6.512;2023-11-22T03:20:00;100918.52;;;5.05;80.49
65394;BME280;52002;49.760;6.512;2023-11-22T03:22:26;100922.48;;;5.07;80.96
65394;BME280;52002;49.760;6.512;2023-11-22T03:24:55;100922.60;;;5.05;80.76
65394;BME280;52002;49.760;6.512;2023-11-22T03:27:20;100925.08;;;5.05;80.81
65394;BME280;52002;49.760;6.512;2023-11-22T03:29:47;100927.27;;;5.03;80.67
65394;BME280;52002;49.760;6.512;2023-11-22T03:32:13;100921.85;;;4.98;80.33
65394;BME280;52002;49.760;6.512;2023-11-22T03:34:38;100923.07;;;4.99;81.09
65394;BME280;52002;49.760;6.512;2023-11-22T03:37:03;100925.84;;;4.96;80.83
65394;BME280;52002;49.760;6.512;2023-11-22T03:39:29;100930.24;;;4.93;81.18
65394;BME280;52002;49.760;6.512;2023-11-22T03:41:55;100937.20;;;4.92;80.99
65394;BME280;52002;49.760;6.512;2023-11-22T03:44:20;100939.71;;;4.91;81.19
65394;BME280;52002;49.760;6.512;2023-11-22T03:46:45;100943.69;;;4.89;81.05
65394;BME280;52002;49.760;6.512;2023-11-22T03:49:11;100946.23;;;4.84;81.16
65394;BME280;52002;49.760;6.512;2023-11-22T03:51:41;100944.39;;;4.82;80.90
65394;BME280;52002;49.760;6.512;2023-11-22T03:54:07;100951.51;;;4.80;81.15
65394;BME280;52002;49.760;6.512;2023-11-22T03:56:32;100953.77;;;4.78;80.96
65394;BME280;52002;49.760;6.512;2023-11-22T03:58:59;100960.45;;;4.78;80.99
65394;BME280;52002;49.760;6.512;2023-11-22T04:01:24;100962.05;;;4.78;81.18
65394;BME280;52002;49.760;6.512;2023-11-22T04:03:50;100961.39;;;4.77;80.94
65394;BME280;52002;49.760;6.512;2023-11-22T04:06:17;100962.48;;;4.72;81.07
65394;BME280;52002;49.760;6.512;2023-11-22T04:08:43;100967.27;;;4.68;80.74
65394;BME280;52002;49.760;6.512;2023-11-22T04:11:09;100970.59;;;4.62;80.79
65394;BME280;52002;49.760;6.512;2023-11-22T04:13:35;100975.69;;;4.58;81.09
65394;BME280;52002;49.760;6.512;2023-11-22T04:16:01;100977.14;;;4.58;81.18
65394;BME280;52002;49.760;6.512;2023-11-22T04:18:26;100978.17;;;4.54;81.43
65394;BME280;52002;49.760;6.512;2023-11-22T04:20:52;100983.71;;;4.57;81.30
65394;BME280;52002;49.760;6.512;2023-11-22T04:23:18;100983.15;;;4.54;81.27
65394;BME280;52002;49.760;6.512;2023-11-22T04:25:43;100986.27;;;4.54;81.66
65394;BME280;52002;49.760;6.512;2023-11-22T04:28:09;100995.56;;;4.60;81.95
65394;BME280;52002;49.760;6.512;2023-11-22T04:30:35;101001.52;;;4.63;81.58
65394;BME280;52002;49.760;6.512;2023-11-22T04:33:01;101005.14;;;4.65;81.74
65394;BME280;52002;49.760;6.512;2023-11-22T04:35:27;101004.30;;;4.65;81.31
65394;BME280;52002;49.760;6.512;2023-11-22T04:37:53;101011.16;;;4.65;81.65
65394;BME280;52002;49.760;6.512;2023-11-22T04:40:20;101008.10;;;4.66;81.92
65394;BME280;52002;49.760;6.512;2023-11-22T04:42:46;101015.41;;;4.68;81.91
65394;BME280;52002;49.760;6.512;2023-11-22T04:45:13;101016.00;;;4.71;81.78
65394;BME280;52002;49.760;6.512;2023-11-22T04:47:38;101016.20;;;4.66;81.41
65394;BME280;52002;49.760;6.512;2023-11-22T04:50:05;101014.45;;;4.63;81.36
65394;BME280;52002;49.760;6.512;2023-11-22T04:52:31;101009.39;;;4.61;81.50
65394;BME280;52002;49.760;6.512;2023-11-22T04:54:56;101019.42;;;4.66;81.93
65394;BME280;52002;49.760;6.512;2023-11-22T04:57:22;101031.08;;;4.69;81.80
65394;BME280;52002;49.760;6.512;2023-11-22T04:59:47;101041.80;;;4.70;81.96
65394;BME280;52002;49.760;6.512;2023-11-22T05:02:12;101039.76;;;4.72;81.86
65394;BME280;52002;49.760;6.512;2023-11-22T05:04:38;101039.91;;;4.73;81.66
65394;BME280;52002;49.760;6.512;2023-11-22T05:07:03;101047.61;;;4.74;81.95
65394;BME280;52002;49.760;6.512;2023-11-22T05:09:29;101053.77;;;4.74;81.52
65394;BME280;52002;49.760;6.512;2023-11-22T05:11:54;101056.69;;;4.76;81.83
65394;BME280;52002;49.760;6.512;2023-11-22T05:14:19;101058.66;;;4.79;81.92
65394;BME280;52002;49.760;6.512;2023-11-22T05:16:44;101053.23;;;4.78;81.64
65394;BME280;52002;49.760;6.512;2023-11-22T05:19:10;101057.37;;;4.77;81.66
65394;BME280;52002;49.760;6.512;2023-11-22T05:21:35;101054.04;;;4.76;81.79
65394;BME280;52002;49.760;6.512;2023-11-22T05:24:01;101053.56;;;4.75;81.63
65394;BME280;52002;49.760;6.512;2023-11-22T05:26:26;101054.73;;;4.72;81.54
65394;BME280;52002;49.760;6.512;2023-11-22T05:28:52;101053.48;;;4.68;81.39
65394;BME280;52002;49.760;6.512;2023-11-22T05:31:20;101052.25;;;4.69;81.70
65394;BME280;52002;49.760;6.512;2023-11-22T05:33:45;101048.87;;;4.69;81.90
65394;BME280;52002;49.760;6.512;2023-11-22T05:36:11;101041.96;;;4.74;82.10
65394;BME280;52002;49.760;6.512;2023-11-22T05:38:36;101045.10;;;4.75;81.95
65394;BME280;52002;49.760;6.512;2023-11-22T05:41:03;101053.72;;;4.79;81.99
65394;BME280;52002;49.760;6.512;2023-11-22T05:43:29;101054.70;;;4.80;81.87
65394;BME280;52002;49.760;6.512;2023-11-22T05:45:54;101054.73;;;4.83;82.21
65394;BME280;52002;49.760;6.512;2023-11-22T05:48:19;101063.69;;;4.84;81.89
65394;BME280;52002;49.760;6.512;2023-11-22T05:50:46;101058.77;;;4.84;81.71
65394;BME280;52002;49.760;6.512;2023-11-22T05:53:12;101057.38;;;4.84;81.84
65394;BME280;52002;49.760;6.512;2023-11-22T05:55:37;101058.61;;;4.84;82.03
65394;BME280;52002;49.760;6.512;2023-11-22T05:58:03;101059.61;;;4.85;81.90
65394;BME280;52002;49.760;6.512;2023-11-22T06:00:28;101062.69;;;4.87;82.25
65394;BME280;52002;49.760;6.512;2023-11-22T06:02:54;101059.73;;;4.89;82.49
65394;BME280;52002;49.760;6.512;2023-11-22T06:05:20;101066.39;;;4.94;82.41
65394;BME280;52002;49.760;6.512;2023-11-22T06:07:46;101074.19;;;4.94;81.72
65394;BME280;52002;49.760;6.512;2023-11-22T06:10:13;101074.38;;;4.93;81.87
65394;BME280;52002;49.760;6.512;2023-11-22T06:12:39;101083.30;;;4.95;81.98
65394;BME280;52002;49.760;6.512;2023-11-22T06:15:05;101094.16;;;4.96;81.92
65394;BME280;52002;49.760;6.512;2023-11-22T06:17:30;101099.91;;;4.98;81.80
65394;BME280;52002;49.760;6.512;2023-11-22T06:19:55;101098.91;;;5.00;81.89
65394;BME280;52002;49.760;6.512;2023-11-22T06:22:21;101094.77;;;5.02;81.85
65394;BME280;52002;49.760;6.512;2023-11-22T06:24:47;101100.20;;;5.04;81.78
65394;BME280;52002;49.760;6.512;2023-11-22T06:27:13;101100.15;;;5.00;81.68
65394;BME280;52002;49.760;6.512;2023-11-22T06:29:40;101106.70;;;5.00;81.68
65394;BME280;52002;49.760;6.512;2023-11-22T06:32:08;101100.02;;;4.99;81.95
65394;BME280;52002;49.760;6.512;2023-11-22T06:34:34;101101.94;;;4.99;82.38
65394;BME280;52002;49.760;6.512;2023-11-22T06:37:01;101109.06;;;4.98;81.93
65394;BME280;52002;49.760;6.512;2023-11-22T06:39:26;101116.23;;;4.96;81.92
65394;BME280;52002;49.760;6.512;2023-11-22T06:41:52;101120.23;;;4.94;81.88
65394;BME280;52002;49.760;6.512;2023-11-22T06:44:17;101125.65;;;4.91;81.93
65394;BME280;52002;49.760;6.512;2023-11-22T06:46:42;101121.60;;;4.91;81.89
65394;BME280;52002;49.760;6.512;2023-11-22T06:49:08;101113.88;;;4.90;81.87
65394;BME280;52002;49.760;6.512;2023-11-22T06:51:34;101114.82;;;4.89;81.94
65394;BME280;52002;49.760;6.512;2023-11-22T06:53:59;101111.38;;;4.91;82.30
65394;BME280;52002;49.760;6.512;2023-11-22T06:56:24;101105.52;;;4.91;82.09
65394;BME280;52002;49.760;6.512;2023-11-22T06:58:50;101112.23;;;4.91;82.03
65394;BME280;52002;49.760;6.512;2023-11-22T07:01:16;101118.46;;;4.90;81.82
65394;BME280;52002;49.760;6.512;2023-11-22T07:03:41;101126.42;;;4.86;81.56
65394;BME280;52002;49.760;6.512;2023-11-22T07:06:07;101137.25;;;4.88;82.29
65394;BME280;52002;49.760;6.512;2023-11-22T07:08:33;101146.83;;;4.91;82.39
65394;BME280;52002;49.760;6.512;2023-11-22T07:10:59;101144.45;;;4.96;82.54
65394;BME280;52002;49.760;6.512;2023-11-22T07:13:25;101135.66;;;5.04;82.41
65394;BME280;52002;49.760;6.512;2023-11-22T07:15:52;101131.92;;;5.08;82.41
65394;BME280;52002;49.760;6.512;2023-11-22T07:18:19;101129.16;;;5.11;82.24
65394;BME280;52002;49.760;6.512;2023-11-22T07:20:45;101128.48;;;5.13;82.04
65394;BME280;52002;49.760;6.512;2023-11-22T07:23:13;101132.62;;;5.15;81.72
65394;BME280;52002;49.760;6.512;2023-11-22T07:25:40;101132.31;;;5.18;82.08
65394;BME280;52002;49.760;6.512;2023-11-22T07:28:06;101137.94;;;5.22;82.07
65394;BME280;52002;49.760;6.512;2023-11-22T07:30:32;101143.42;;;5.26;82.03
65394;BME280;52002;49.760;6.512;2023-11-22T07:32:58;101141.45;;;5.26;81.67
65394;BME280;52002;49.760;6.512;2023-11-22T07:35:26;101137.71;;;5.27;81.56
65394;BME280;52002;49.760;6.512;2023-11-22T07:37:53;101144.83;;;5.33;82.04
65394;BME280;52002;49.760;6.512;2023-11-22T07:40:19;101152.89;;;5.38;81.85
65394;BME280;52002;49.760;6.512;2023-11-22T07:42:47;101152.16;;;5.42;81.73
65394;BME280;52002;49.760;6.512;2023-11-22T07:45:12;101157.60;;;5.50;81.88
65394;BME280;52002;49.760;6.512;2023-11-22T07:47:38;101158.46;;;5.54;81.92
65394;BME280;52002;49.760;6.512;2023-11-22T07:50:09;101156.02;;;5.61;81.96
65394;BME280;52002;49.760;6.512;2023-11-22T07:52:37;101163.42;;;5.68;81.67
65394;BME280;52002;49.760;6.512;2023-11-22T07:55:04;101169.61;;;5.72;81.61
65394;BME280;52002;49.760;6.512;2023-11-22T07:57:33;101172.90;;;5.77;81.18
65394;BME280;52002;49.760;6.512;2023-11-22T07:59:59;101174.91;;;5.82;81.33
65394;BME280;52002;49.760;6.512;2023-11-22T08:02:26;101178.65;;;5.89;81.04
65394;BME280;52002;49.760;6.512;2023-11-22T08:04:52;101183.27;;;5.92;80.59
65394;BME280;52002;49.760;6.512;2023-11-22T08:07:18;101191.64;;;5.98;80.21
65394;BME280;52002;49.760;6.512;2023-11-22T08:09:44;101194.42;;;6.03;79.32
65394;BME280;52002;49.760;6.512;2023-11-22T08:12:09;101198.35;;;6.05;78.13
65394;BME280;52002;49.760;6.512;2023-11-22T08:14:37;101203.94;;;6.11;77.53
65394;BME280;52002;49.760;6.512;2023-11-22T08:17:03;101222.23;;;6.15;76.64
65394;BME280;52002;49.760;6.512;2023-11-22T08:19:29;101229.47;;;6.19;75.84
65394;BME280;52002;49.760;6.512;2023-11-22T08:21:54;101234.90;;;6.20;74.34
65394;BME280;52002;49.760;6.512;2023-11-22T08:24:20;101225.63;;;6.18;73.41
65394;BME280;52002;49.760;6.512;2023-11-22T08:26:45;101223.08;;;6.24;73.19
65394;BME280;52002;49.760;6.512;2023-11-22T08:29:11;101216.29;;;6.32;73.08
65394;BME280;52002;49.760;6.512;2023-11-22T08:31:36;101216.91;;;6.37;72.43
65394;BME280;52002;49.760;6.512;2023-11-22T08:34:03;101217.94;;;6.41;72.16
65394;BME280;52002;49.760;6.512;2023-11-22T08:36:32;101217.87;;;6.46;71.33
65394;BME280;52002;49.760;6.512;2023-11-22T08:39:00;101219.61;;;6.46;70.47
65394;BME280;52002;49.760;6.512;2023-11-22T08:41:27;101222.73;;;6.44;69.99
65394;BME280;52002;49.760;6.512;2023-11-22T08:43:52;101221.88;;;6.40;69.14
65394;BME280;52002;49.760;6.512;2023-11-22T08:46:17;101220.17;;;6.35;68.09
65394;BME280;52002;49.760;6.512;2023-11-22T08:48:43;101217.86;;;6.29;67.88
65394;BME280;52002;49.760;6.512;2023-11-22T08:51:08;101216.16;;;6.20;67.18
65394;BME280;52002;49.760;6.512;2023-11-22T08:53:35;101211.92;;;6.10;67.55
65394;BME280;52002;49.760;6.512;2023-11-22T08:56:00;101205.34;;;6.00;67.40
65394;BME280;52002;49.760;6.512;2023-11-22T08:58:25;101204.36;;;5.87;66.40
65394;BME280;52002;49.760;6.512;2023-11-22T09:00:52;101209.61;;;5.74;65.72
65394;BME280;52002;49.760;6.512;2023-11-22T09:03:18;101211.92;;;5.62;65.77
65394;BME280;52002;49.760;6.512;2023-11-22T09:05:44;101206.48;;;5.55;65.68
65394;BME280;52002;49.760;6.512;2023-11-22T09:08:11;101201.90;;;5.47;64.92
65394;BME280;52002;49.760;6.512;2023-11-22T09:10:39;101201.96;;;5.38;65.06
65394;BME280;52002;49.760;6.512;2023-11-22T09:13:06;101196.20;;;5.33;65.61
65394;BME280;52002;49.760;6.512;2023-11-22T09:15:31;101189.52;;;5.29;65.90
65394;BME280;52002;49.760;6.512;2023-11-22T09:17:59;101191.33;;;5.28;66.43
65394;BME280;52002;49.760;6.512;2023-11-22T09:20:25;101198.95;;;5.27;66.46
65394;BME280;52002;49.760;6.512;2023-11-22T09:22:52;101204.06;;;5.24;66.15
65394;BME280;52002;49.760;6.512;2023-11-22T09:25:21;101211.30;;;5.20;65.65
65394;BME280;52002;49.760;6.512;2023-11-22T09:27:49;101223.67;;;5.20;66.08
65394;BME280;52002;49.760;6.512;2023-11-22T09:30:20;101235.84;;;5.20;65.53
65394;BME280;52002;49.760;6.512;2023-11-22T09:33:02;101249.30;;;5.23;65.51
65394;BME280;52002;49.760;6.512;2023-11-22T09:35:28;101263.69;;;5.25;64.40
65394;BME280;52002;49.760;6.512;2023-11-22T09:38:00;101276.49;;;5.26;63.41
65394;BME280;52002;49.760;6.512;2023-11-22T09:40:29;101271.14;;;5.28;62.77
65394;BME280;52002;49.760;6.512;2023-11-22T09:42:58;101268.28;;;5.32;63.21
65394;BME280;52002;49.760;6.512;2023-11-22T09:45:24;101264.73;;;5.37;62.97
65394;BME280;52002;49.760;6.512;2023-11-22T09:47:51;101268.88;;;5.39;62.76
65394;BME280;52002;49.760;6.512;2023-11-22T09:50:23;101269.62;;;5.41;62.55
65394;BME280;52002;49.760;6.512;2023-11-22T09:52:52;101281.99;;;5.45;62.45
65394;BME280;52002;49.760;6.512;2023-11-22T09:55:28;101277.96;;;5.48;62.14
65394;BME280;52002;49.760;6.512;2023-11-22T09:57:54;101268.13;;;5.50;62.43
65394;BME280;52002;49.760;6.512;2023-11-22T10:00:22;101269.79;;;5.53;61.39
65394;BME280;52002;49.760;6.512;2023-11-22T10:02:49;101264.59;;;5.55;60.28
65394;BME280;52002;49.760;6.512;2023-11-22T10:05:15;101268.33;;;5.57;59.59
65394;BME280;52002;49.760;6.512;2023-11-22T10:07:40;101265.72;;;5.60;59.24
65394;BME280;52002;49.760;6.512;2023-11-22T10:10:06;101266.52;;;5.62;58.82
65394;BME280;52002;49.760;6.512;2023-11-22T10:12:32;101258.66;;;5.64;59.05
65394;BME280;52002;49.760;6.512;2023-11-22T10:15:15;101259.48;;;5.69;59.32
65394;BME280;52002;49.760;6.512;2023-11-22T10:17:49;101264.73;;;5.74;59.45
65394;BME280;52002;49.760;6.512;2023-11-22T10:20:18;101275.29;;;5.79;59.17
65394;BME280;52002;49.760;6.512;2023-11-22T10:22:45;101272.67;;;5.81;58.97
65394;BME280;52002;49.760;6.512;2023-11-22T10:25:11;101269.88;;;5.84;59.16
65394;BME280;52002;49.760;6.512;2023-11-22T10:27:38;101260.70;;;5.88;58.71
65394;BME280;52002;49.760;6.512;2023-11-22T10:30:04;101247.46;;;5.91;58.45
65394;BME280;52002;49.760;6.512;2023-11-22T10:32:30;101239.71;;;5.95;58.24
65394;BME280;52002;49.760;6.512;2023-11-22T10:34:55;101243.15;;;6.00;58.16
65394;BME280;52002;49.760;6.512;2023-11-22T10:37:20;101253.21;;;6.04;57.97
65394;BME280;52002;49.760;6.512;2023-11-22T10:39:50;101249.10;;;6.09;57.70
65394;BME280;52002;49.760;6.512;2023-11-22T10:42:17;101250.16;;;6.12;57.81
65394;BME280;52002;49.760;6.512;2023-11-22T10:44:43;101247.71;;;6.18;58.26
65394;BME280;52002;49.760;6.512;2023-11-22T10:47:09;101255.45;;;6.23;58.14
65394;BME280;52002;49.760;6.512;2023-11-22T10:49:35;101258.95;;;6.24;56.94
65394;BME280;52002;49.760;6.512;2023-11-22T10:52:02;101263.60;;;6.22;56.80
65394;BME280;52002;49.760;6.512;2023-11-22T10:54:31;101263.44;;;6.23;57.02
65394;BME280;52002;49.760;6.512;2023-11-22T10:56:59;101264.70;;;6.22;56.39
65394;BME280;52002;49.760;6.512;2023-11-22T10:59:28;101263.31;;;6.21;55.89
65394;BME280;52002;49.760;6.512;2023-11-22T11:01:57;101263.52;;;6.24;56.08
65394;BME280;52002;49.760;6.512;2023-11-22T11:04:27;101261.98;;;6.28;55.99
65394;BME280;52002;49.760;6.512;2023-11-22T11:06:55;101255.33;;;6.33;56.03
65394;BME280;52002;49.760;6.512;2023-11-22T11:09:22;101245.69;;;6.38;55.75
65394;BME280;52002;49.760;6.512;2023-11-22T11:11:52;101241.70;;;6.43;55.49
65394;BME280;52002;49.760;6.512;2023-11-22T11:14:17;101245.93;;;6.50;55.96
65394;BME280;52002;49.760;6.512;2023-11-22T11:16:44;101249.84;;;6.60;55.74
65394;BME280;52002;49.760;6.512;2023-11-22T11:19:15;101256.30;;;6.69;55.91
65394;BME280;52002;49.760;6.512;2023-11-22T11:21:42;101263.39;;;6.76;55.43
65394;BME280;52002;49.760;6.512;2023-11-22T11:24:08;101265.65;;;6.79;54.57
65394;BME280;52002;49.760;6.512;2023-11-22T11:26:33;101266.94;;;6.82;55.14
65394;BME280;52002;49.760;6.512;2023-11-22T11:29:01;101270.56;;;6.87;54.95
65394;BME280;52002;49.760;6.512;2023-11-22T11:31:32;101274.82;;;6.90;54.41
65394;BME280;52002;49.760;6.512;2023-11-22T11:34:00;101278.87;;;6.94;53.97
65394;BME280;52002;49.760;6.512;2023-11-22T11:36:28;101277.16;;;6.96;53.80
65394;BME280;52002;49.760;6.512;2023-11-22T11:38:55;101270.77;;;6.97;53.15
65394;BME280;52002;49.760;6.512;2023-11-22T11:41:26;101261.33;;;6.98;53.39
65394;BME280;52002;49.760;6.512;2023-11-22T11:43:52;101261.78;;;6.99;53.71
65394;BME280;52002;49.760;6.512;2023-11-22T11:46:17;101264.35;;;7.04;54.13
65394;BME280;52002;49.760;6.512;2023-11-22T11:48:44;101272.81;;;7.11;54.37
65394;BME280;52002;49.760;6.512;2023-11-22T11:51:13;101290.83;;;7.16;53.45
65394;BME280;52002;49.760;6.512;2023-11-22T11:53:38;101298.28;;;7.16;52.55
65394;BME280;52002;49.760;6.512;2023-11-22T11:56:04;101289.20;;;7.17;52.43
65394;BME280;52002;49.760;6.512;2023-11-22T11:58:30;101283.80;;;7.21;52.70
65394;BME280;52002;49.760;6.512;2023-11-22T12:00:57;101277.41;;;7.25;52.53
65394;BME280;52002;49.760;6.512;2023-11-22T12:03:23;101268.55;;;7.28;52.42
65394;BME280;52002;49.760;6.512;2023-11-22T12:05:48;101259.20;;;7.34;53.40
65394;BME280;52002;49.760;6.512;2023-11-22T12:08:16;101257.20;;;7.41;52.97
65394;BME280;52002;49.760;6.512;2023-11-22T12:10:43;101251.51;;;7.45;52.44
65394;BME280;52002;49.760;6.512;2023-11-22T12:13:08;101250.55;;;7.46;52.62
65394;BME280;52002;49.760;6.512;2023-11-22T12:15:34;101250.21;;;7.46;52.94
65394;BME280;52002;49.760;6.512;2023-11-22T12:18:03;101252.39;;;7.45;52.95
65394;BME280;52002;49.760;6.512;2023-11-22T12:20:29;101255.78;;;7.44;52.84
65394;BME280;52002;49.760;6.512;2023-11-22T12:23:00;101254.20;;;7.41;52.19
65394;BME280;52002;49.760;6.512;2023-11-22T12:28:48;101238.48;;;7.27;51.61
65394;BME280;52002;49.760;6.512;2023-11-22T12:31:15;101236.49;;;7.25;51.74
65394;BME280;52002;49.760;6.512;2023-11-22T12:33:41;101234.29;;;7.20;51.85
65394;BME280;52002;49.760;6.512;2023-11-22T12:36:09;101241.60;;;7.16;52.44
65394;BME280;52002;49.760;6.512;2023-11-22T12:38:35;101242.77;;;7.14;51.74
65394;BME280;52002;49.760;6.512;2023-11-22T12:41:02;101238.08;;;7.12;51.80
65394;BME280;52002;49.760;6.512;2023-11-22T12:43:29;101231.78;;;7.10;51.81
65394;BME280;52002;49.760;6.512;2023-11-22T12:46:07;101228.16;;;7.12;52.33
65394;BME280;52002;49.760;6.512;2023-11-22T12:48:33;101234.59;;;7.18;52.67
65394;BME280;52002;49.760;6.512;2023-11-22T12:51:00;101238.13;;;7.21;52.37
65394;BME280;52002;49.760;6.512;2023-11-22T12:53:26;101248.49;;;7.22;52.53
65394;BME280;52002;49.760;6.512;2023-11-22T12:55:56;101250.80;;;7.22;52.33
65394;BME280;52002;49.760;6.512;2023-11-22T12:58:23;101242.91;;;7.21;51.97